Home > Products > Valid Products > MTR

000
SAUS46 KMFR 280057
MTRSXT
METAR KSXT 280056Z AUTO 35007G15KT 310V040 10SM CLR 12/03 A3010 RMK
AO2 SLP185 T01220033





000
SAUS46 KMFR 272357
MTRSXT
METAR KSXT 272356Z AUTO 35007KT 310V050 10SM CLR 13/03 A3011 RMK AO2
SLP189 T01330033 10139 20083 56010





000
SAUS46 KMFR 272057
MTRSXT
METAR KSXT 272056Z AUTO VRB05KT 10SM CLR 12/03 A3015 RMK AO2 SLP200
T01170028 58005





000
SAUS46 KMFR 271722
MTRSXT
SPECI KSXT 271721Z AUTO VRB04KT 10SM FEW005 07/03 A3016 RMK AO2
T00720033





000
SAUS46 KMFR 271655
MTRSXT
SPECI KSXT 271654Z AUTO 33005KT 10SM BKN005 07/04 A3017 RMK AO2





000
SAUS46 KMFR 271435
MTRSXT
SPECI KSXT 271433Z AUTO 35005KT 1SM BR VV001 03/03 A3017 RMK AO2 VIS
1/4V5 T00330028





000
SAUS46 KMFR 271421
MTRSXT
SPECI KSXT 271419Z AUTO 36007KT 8SM BKN001 03/03 A3016 RMK AO2
T00330028





000
SAUS46 KMFR 271345
MTRSXT
SPECI KSXT 271343Z AUTO 35005KT 1/4SM FG VV001 03/03 A3016 RMK AO2
VIS M1/4V5 T00330028





000
SAUS46 KMFR 271337
MTRSXT
SPECI KSXT 271336Z AUTO 36006KT 3SM BR BKN001 03/03 A3016 RMK AO2
T00330028





000
SAUS46 KMFR 271213
MTRSXT
SPECI KSXT 271212Z AUTO 02009KT 10SM SCT003 03/03 A3015 RMK AO2
T00330028





000
SAUS46 KMFR 271200
MTRMHS
METAR KMHS 271156Z AUTO VRB05G20KT 10SM CLR 07/02 A3009 RMK AO2
SLP191 T00720022 10133 20072 58001





000
SAUS46 KMFR 271057
MTRSXT
METAR KSXT 271056Z AUTO 01008KT 340V040 10SM OVC006 04/03 A3015 RMK
AO2 CIG 003V009 SLP200 T00390028





000
SAUS46 KMFR 270939
MTRSXT
SPECI KSXT 270937Z AUTO 01007G17KT 320V050 10SM BKN010 04/03 A3016
RMK AO2 CIG 007V012 T00440028





000
SAUS46 KMFR 270657
MTRSXT
METAR KSXT 270656Z AUTO 35008G14KT 320V030 10SM OVC013 06/03 A3017
RMK AO2 SLP208 T00560033





000
SAUS46 KMFR 270057
MTRSXT
METAR KSXT 270056Z AUTO 34008KT 290V360 10SM CLR 12/05 A3015 RMK AO2
SLP200 T01220050





000
SAUS46 KMFR 262357
MTRSXT
METAR KSXT 262356Z AUTO 35007KT 310V020 10SM CLR 13/06 A3016 RMK AO2
SLP201 T01330056 10150 20089 56006





000
SAUS46 KMFR 261831
MTRSXT
SPECI KSXT 261830Z AUTO VRB05KT 10SM SCT014 09/04 A3019 RMK AO2
T00940044





000
SAUS46 KMFR 261757
MTRSXT
METAR KSXT 261756Z AUTO VRB04KT 10SM OVC012 10/05 A3019 RMK AO2
SLP218 T01000050 10106 20044 50002





000
SAUS46 KMFR 261500
MTRMHS
METAR KMHS 261456Z AUTO VRB05KT 10SM CLR 12/06 A3014 RMK AO2 SLP209
T01220056 50003





000
SAUS46 KMFR 261452
MTRSXT
SPECI KSXT 261451Z AUTO 01004KT 7SM BKN002 OVC011 06/05 A3019 RMK
AO2





000
SAUS46 KMFR 261312
MTRSXT
SPECI KSXT 261311Z AUTO 35008KT 1/4SM FG VV001 04/04 A3018 RMK AO2
T00440044





000
SAUS46 KMFR 261257
MTRSXT
METAR KSXT 261256Z AUTO 35007KT M1/4SM FG VV002 05/04 A3018 RMK AO2
SLP208 T00500044





000
SAUS46 KMFR 261226
MTRSXT
SPECI KSXT 261224Z AUTO 35007KT 1/4SM FG VV002 05/04 A3018 RMK AO2
T00500044





000
SAUS46 KMFR 261200
MTRMHS
METAR KMHS 261156Z AUTO 03003KT 10SM CLR 08/04 A3014 RMK AO2 SLP207
T00780039 10133 20072 58001





000
SAUS46 KMFR 261157
MTRSXT
METAR KSXT 261156Z AUTO 35007KT 1/4SM FG VV001 05/04 A3018 RMK AO2
SLP204 T00500044 10067 20050 56002





000
SAUS46 KMFR 261128
MTRSXT
SPECI KSXT 261126Z AUTO 36008KT 3/4SM BR VV002 05/04 A3018 RMK AO2
T00500044





000
SAUS46 KMFR 261123
MTRSXT
SPECI KSXT 261122Z AUTO 36008KT 1SM BR VV001 05/04 A3017 RMK AO2
T00500044





000
SAUS46 KMFR 261107
MTRSXT
SPECI KSXT 261106Z AUTO 01009KT 1/2SM FG VV002 05/05 A3018 RMK AO2
T00500050





000
SAUS46 KMFR 261007
MTRSXT
SPECI KSXT 261006Z AUTO 01009G15KT 4SM BR OVC002 06/05 A3018 RMK AO2
T00560050





000
SAUS46 KMFR 260921
MTRSXT
SPECI KSXT 260920Z AUTO 34005KT 10SM FEW003 06/05 A3019 RMK AO2
T00560050





000
SAUS46 KMFR 260815
MTRSXT
SPECI KSXT 260813Z AUTO 36007KT 320V040 10SM FEW009 06/04 A3020 RMK
AO2 T00560044





000
SAUS46 KMFR 260557
MTRSXT
METAR KSXT 260556Z AUTO 35009G18KT 10SM FEW011 06/04 A3020 RMK AO2
SLP223 T00610044 10144 20061 51009





000
SAUS46 KMFR 260500
MTRMHS
METAR KMHS 260456Z AUTO VRB06KT 10SM CLR 14/04 A3013 RMK AO2 SLP204
T01440039





000
SAUS46 KMFR 260301
MTRMHS
METAR KMHS 260256Z AUTO 31004KT 10SM CLR 17/03 A3010 RMK AO2 SLP192
T01670033 53008





000
SAUS46 KMFR 260257
MTRSXT
METAR KSXT 260256Z AUTO 36008G16KT 10SM CLR 10/06 A3017 RMK AO2
SLP208 T01000061 53003





000
SAUS46 KMFR 260157
MTRSXT
METAR KSXT 260156Z AUTO VRB03KT 10SM CLR 12/07 A3016 RMK AO2 SLP201
T01220067





000
SAUS46 KMFR 260000
MTRMHS
METAR KMHS 252356Z AUTO 30007G15KT 270V350 10SM FEW080 19/04 A3007
RMK AO2 SLP184 T01940039 10222 20178 58008





000
SAUS46 KMFR 252300 COR
MTRMHS
METAR KMHS 252256Z AUTO 33007KT 290V030 10SM FEW070 22/04 A3008 RMK
AO2 SLP184 T02170039





000
SAUS46 KMFR 252257
MTRSXT
METAR KSXT 252256Z AUTO VRB05KT 10SM CLR 16/07 A3017 RMK AO2 SLP194
T01560072





000
SAUS46 KMFR 251900
MTRMHS
METAR KMHS 251856Z AUTO 30008G15KT 250V340 10SM CLR 19/05 A3010 RMK
AO2 SLP194 T01890050





000
SAUS46 KMFR 251824
MTRSXT
SPECI KSXT 251822Z AUTO VRB04KT 3SM BR OVC002 08/07 A3017 RMK AO2
T00780072





000
SAUS46 KMFR 251800 COR
MTRMHS
METAR KMHS 251756Z AUTO VRB05KT 10SM FEW035 18/06 A3011 RMK AO2
SLP197 T01780061 10178 20078 50005





000
SAUS46 KMFR 251757
MTRSXT
METAR KSXT 251756Z AUTO 34005KT 1/4SM FG VV002 08/07 A3016 RMK AO2
SLP207 T00780072 10078 20061 51007





000
SAUS46 KMFR 251400 COR
MTRMHS
METAR KMHS 251356Z AUTO 00000KT 10SM BKN015 BKN031 10/08 A3008 RMK
AO2 SLP193 T01000083





000
SAUS46 KMFR 251357
MTRSXT
METAR KSXT 251356Z AUTO 36008KT M1/4SM FG VV002 06/06 A3011 RMK AO2
SLP184 T00610061





000
SAUS46 KMFR 251326
MTRSXT
SPECI KSXT 251324Z AUTO 35008KT M1/4SM FG VV002 06/06 A3010 RMK AO2
T00610061





000
SAUS46 KMFR 251257
MTRSXT
METAR KSXT 251256Z AUTO 36007KT M1/4SM FG VV002 07/06 A3010 RMK AO2
SLP178 T00670061





000
SAUS46 KMFR 251232
MTRSXT
SPECI KSXT 251231Z AUTO 36008KT 1/4SM FG VV002 07/07 A3010 RMK AO2
T00670067





000
SAUS46 KMFR 251223
MTRSXT
SPECI KSXT 251222Z AUTO 36007KT 1/4SM FG VV001 07/07 A3009 RMK AO2
T00670067





000
SAUS46 KMFR 251216
MTRSXT
SPECI KSXT 251214Z AUTO 36007KT 1/4SM FG VV002 07/07 A3009 RMK AO2
T00670067





000
SAUS46 KMFR 251213
MTRMHS
SPECI KMHS 251211Z AUTO 00000KT 3SM BR OVC002 08/07 A3007 RMK AO2
T00830067





000
SAUS46 KMFR 251209
MTRSXT
SPECI KSXT 251207Z AUTO 36009KT 1/4SM FG VV001 07/07 A3009 RMK AO2
T00720067





000
SAUS46 KMFR 251200
MTRMHS
SPECI KMHS 251159Z AUTO 00000KT 3/4SM BR VV002 08/07 A3007 RMK AO2
T00830067





000
SAUS46 KMFR 251158
MTRSXT
METAR KSXT 251156Z AUTO 01008KT 1/4SM FG VV002 07/07 A3009 RMK AO2
SLP167 T00720067 10089 20067 51004





000
SAUS46 KMFR 251131 COR
MTRMHS
SPECI KMHS 251127Z AUTO 00000KT 1 3/4SM BR OVC003 09/08 A3006 RMK
AO2 T00940078





000
SAUS46 KMFR 251125
MTRSXT
SPECI KSXT 251124Z AUTO 01008KT 1/4SM FG VV002 07/07 A3008 RMK AO2
T00720067





000
SAUS46 KMFR 251100
MTRMHS
METAR KMHS 251056Z AUTO 00000KT 6SM BR OVC003 09/08 A3006 RMK AO2
SLP180 T00940078





000
SAUS46 KMFR 251037
MTRSXT
SPECI KSXT 251036Z AUTO 35006KT 1/2SM FG BKN001 OVC019 07/07 A3008
RMK AO2 T00720067





000
SAUS46 KMFR 251025
MTRSXT
SPECI KSXT 251023Z AUTO 36007KT 3/4SM BR OVC018 07/07 A3008 RMK AO2
T00720067





000
SAUS46 KMFR 250955 COR
MTRMHS
SPECI KMHS 250951Z AUTO 00000KT 10SM BKN006 OVC070 09/07 A3006 RMK
AO2





000
SAUS46 KMFR 250939
MTRSXT
SPECI KSXT 250938Z AUTO 36008KT 1 3/4SM BR BKN002 BKN019 07/07 A3008
RMK AO2 T00720072





000
SAUS46 KMFR 250922
MTRSXT
SPECI KSXT 250921Z AUTO 35007KT 1SM BR VV001 07/07 A3008 RMK AO2
T00720067





000
SAUS46 KMFR 250800 COR
MTRMHS
METAR KMHS 250756Z AUTO 00000KT 10SM SCT100 09/07 A3005 RMK AO2
SLP177 T00890072 402220083





000
SAUS46 KMFR 250739
MTRSXT
SPECI KSXT 250738Z AUTO 34005KT 3/4SM BR VV002 08/07 A3007 RMK AO2
T00780072





000
SAUS46 KMFR 250700
MTRMHS
METAR KMHS 250656Z AUTO 00000KT 10SM FEW002 OVC095 11/09 A3005 RMK
AO2 SLP173 T01060089





000
SAUS46 KMFR 250657
MTRSXT
METAR KSXT 250656Z AUTO VRB04KT 10SM OVC003 08/08 A3007 RMK AO2
SLP168 T00830078





000
SAUS46 KMFR 250626
MTRSXT
SPECI KSXT 250625Z AUTO 00000KT 10SM BKN005 08/08 A3006 RMK AO2
T00830078





000
SAUS46 KMFR 250601 COR
MTRMHS
METAR KMHS 250556Z AUTO 00000KT 10SM OVC040 11/09 A3005 RMK AO2
SLP175 60005 T01110094 10183 20111 51014





000
SAUS46 KMFR 250557
MTRSXT
METAR KSXT 250556Z AUTO 34005KT 10SM CLR 08/07 A3006 RMK AO2 SLP167
T00830072 10156 20083 51017





000
SAUS46 KMFR 250500
MTRMHS
METAR KMHS 250456Z AUTO 00000KT 10SM BKN048 OVC060 11/09 A3004 RMK
AO2 RAE52 SLP174 P0000 T01110089





000
SAUS46 KMFR 250400
MTRMHS
METAR KMHS 250356Z AUTO 08004KT 8SM -RA FEW019 FEW033 OVC049 12/09
A3002 RMK AO2 RAB22 SLP171 P0005 T01170089





000
SAUS46 KMFR 250357
MTRSXT
METAR KSXT 250356Z AUTO 34003KT 10SM CLR 09/07 A3002 RMK AO2 SLP156
T00890072





    US Dept of Commerce
    National Oceanic and Atmospheric Administration
    National Weather Service
    1325 East West Highway
    Silver Spring, MD 20910
    Page Author: NWS Internet Services Team
Disclaimer
Information Quality
Credits
Glossary
Privacy Policy
Freedom of Information Act (FOIA)
About Us
Career Opportunities